Aycock, Louisiana
Current Conditions -  °F | °C
As of 10:37 PM on Thursday 18 Dec 2014 (Local Time) from KMNE Reporting Station
Overcast Overcast  
Wind Chill: 50°   Ceiling: 700
Heat Index: 50°   Visibility: 10mi
Dew Point: 46°   Wind: 3mph
Humidity: 87%   Direction: 40°NE
Pressure: 30.19"   Gusts: NA
Location:  32.7443°N, 92.9625°W
Report Text: KMNE 190437Z AUTO 04003KT 10SM BKN007 BKN024 OVC032 10/08 A3019 RMK AO2
Loading
Personal Weather Stations






























Interactive Weather Map New forecast layout! Learn more

10-Day Weather Forecast

Advertisements
Track Severe Weather on mobile